Terminal Aerodrome Forecast
Issued by NWS

Home | Current Version | Previous Version | Text Only | Print | Product List | Glossary On
Versions: 1 2 3 4 5 6 7 8 9 10 11 12
040
FTUS42 KMLB 291733
TAFSFB
TAF
KSFB 291733Z 2918/3018 VRB04KT P6SM FEW045 FEW250
     FM292100 11009KT P6SM SCT070
     FM300100 VRB04KT P6SM FEW070
     FM301400 17008KT P6SM FEW050=

USA.gov is the U.S. government's official web portal to all federal, state and local government web resources and services.